DGAA/ACC METAR and TAF weather

Enter ICAO airport designator
Station Type Date Time Source
DGAA METAR 2020/08/11 19:00 UTC NOAA

DGAA 111900Z 21010KT CAVOK 25/22 Q1014 NOSIG


Station Type Date Time Source
DGAA Decoded METAR 2020/08/11 19:00 UTC NOAA

Accra, Ghana (DGAA) 05-36N 000-10W 69M
Aug 11, 2020 - 03:00 PM EDT / 2020.08.11 1900 UTC
Wind: from the SSW (210 degrees) at 12 MPH (10 KT):0
Visibility: greater than 7 mile(s):0
Temperature: 77 F (25 C)
Dew Point: 71 F (22 C)
Relative Humidity: 83%
Pressure (altimeter): 29.94 in. Hg (1014 hPa)
ob: DGAA 111900Z 21010KT CAVOK 25/22 Q1014 NOSIG
cycle: 19

Station Type Date Time Source
DGAA TAF 2020/08/11 18:21 UTC NOAA

TAF TAF DGAA 111700Z 1118/1224 25010KT 9999 FEW012 PROB30 1204/1209 BKN018
FM121500 20018KT CAVOK

Example: see airport list